Terminal Aerodrome Forecast
Issued by NWS

Home | Current Version | Previous Version | Text Only | Print | Product List | Glossary On
Versions: 1 2 3 4 5 6 7 8 9 10 11 12 13 14 15
000
FTUS44 KLZK 290544
TAFBPK
TAF
KBPK 290544Z 2906/3006 VRB03KT P6SM SCT120 BKN250
     FM291200 07006KT P6SM SCT050 BKN100
     FM291500 08007KT P6SM VCSH SCT015 OVC040
     FM291800 09008KT 5SM -SHRA BR OVC015
      TEMPO 2918/2922 4SM -TSRA BR OVC007CB
     FM292200 12009G16KT 4SM -TSRA BR OVC007CB=

USA.gov is the U.S. government's official web portal to all federal, state and local government web resources and services.